Terminal Aerodrome Forecast
Issued by NWS

Home | Current Version | Previous Version | Text Only | Print | Product List | Glossary On
Versions: 1 2 3 4 5 6 7 8 9 10 11 12 13
000
FTUS44 KLZK 180200 AAA
TAFBPK
TAF AMD
KBPK 180207Z 1802/1824 05004KT P6SM SCT050 BKN100
     FM180300 08006KT P6SM VCTS BKN050CB OVC100
     FM180500 04005KT P6SM VCSH SCT050 OVC100
     FM181400 08007KT P6SM SCT030 OVC100
     FM181800 08009KT P6SM FEW050 SCT100 BKN250=

USA.gov is the U.S. government's official web portal to all federal, state and local government web resources and services.